sensor_id;sensor_type;location;lat;lon;timestamp;P1;durP1;ratioP1;P2;durP2;ratioP2
6033;SDS011;3045;43.226;27.858;2023-04-15T00:01:20;5.50;;;5.10;;
6033;SDS011;3045;43.226;27.858;2023-04-15T00:03:49;4.00;;;3.60;;
6033;SDS011;3045;43.226;27.858;2023-04-15T00:06:17;6.80;;;3.80;;
6033;SDS011;3045;43.226;27.858;2023-04-15T00:08:46;11.63;;;3.73;;
6033;SDS011;3045;43.226;27.858;2023-04-15T00:11:14;5.33;;;3.53;;
6033;SDS011;3045;43.226;27.858;2023-04-15T00:13:42;9.23;;;3.70;;
6033;SDS011;3045;43.226;27.858;2023-04-15T00:16:10;6.53;;;4.97;;
6033;SDS011;3045;43.226;27.858;2023-04-15T00:18:37;5.40;;;4.90;;
6033;SDS011;3045;43.226;27.858;2023-04-15T00:21:04;4.17;;;3.60;;
6033;SDS011;3045;43.226;27.858;2023-04-15T00:23:31;8.60;;;4.23;;
6033;SDS011;3045;43.226;27.858;2023-04-15T00:25:59;3.90;;;3.60;;
6033;SDS011;3045;43.226;27.858;2023-04-15T00:28:26;12.03;;;10.03;;
6033;SDS011;3045;43.226;27.858;2023-04-15T00:30:53;11.90;;;8.97;;
6033;SDS011;3045;43.226;27.858;2023-04-15T00:33:21;6.27;;;5.77;;
6033;SDS011;3045;43.226;27.858;2023-04-15T00:35:48;6.47;;;5.90;;
6033;SDS011;3045;43.226;27.858;2023-04-15T00:38:15;11.97;;;4.63;;
6033;SDS011;3045;43.226;27.858;2023-04-15T00:40:42;6.73;;;4.50;;
6033;SDS011;3045;43.226;27.858;2023-04-15T00:43:10;17.57;;;9.60;;
6033;SDS011;3045;43.226;27.858;2023-04-15T00:45:38;8.30;;;5.23;;
6033;SDS011;3045;43.226;27.858;2023-04-15T00:48:05;21.77;;;10.70;;
6033;SDS011;3045;43.226;27.858;2023-04-15T00:50:33;20.60;;;11.07;;
6033;SDS011;3045;43.226;27.858;2023-04-15T00:53:00;28.20;;;10.80;;
6033;SDS011;3045;43.226;27.858;2023-04-15T00:55:27;24.53;;;11.03;;
6033;SDS011;3045;43.226;27.858;2023-04-15T00:57:55;47.53;;;13.20;;
6033;SDS011;3045;43.226;27.858;2023-04-15T01:00:24;75.50;;;14.33;;
6033;SDS011;3045;43.226;27.858;2023-04-15T01:02:51;64.43;;;15.53;;
6033;SDS011;3045;43.226;27.858;2023-04-15T01:05:18;49.30;;;14.10;;
6033;SDS011;3045;43.226;27.858;2023-04-15T01:07:45;64.13;;;15.10;;
6033;SDS011;3045;43.226;27.858;2023-04-15T01:10:13;58.53;;;14.00;;
6033;SDS011;3045;43.226;27.858;2023-04-15T01:12:40;26.07;;;11.10;;
6033;SDS011;3045;43.226;27.858;2023-04-15T01:15:07;35.60;;;11.00;;
6033;SDS011;3045;43.226;27.858;2023-04-15T01:17:37;37.90;;;11.10;;
6033;SDS011;3045;43.226;27.858;2023-04-15T01:20:05;51.70;;;11.63;;
6033;SDS011;3045;43.226;27.858;2023-04-15T01:22:35;19.20;;;7.50;;
6033;SDS011;3045;43.226;27.858;2023-04-15T01:25:04;25.57;;;8.47;;
6033;SDS011;3045;43.226;27.858;2023-04-15T01:27:37;42.87;;;11.10;;
6033;SDS011;3045;43.226;27.858;2023-04-15T01:30:06;16.30;;;7.13;;
6033;SDS011;3045;43.226;27.858;2023-04-15T01:32:36;38.97;;;10.47;;
6033;SDS011;3045;43.226;27.858;2023-04-15T01:35:04;29.77;;;10.43;;
6033;SDS011;3045;43.226;27.858;2023-04-15T01:37:31;33.47;;;9.53;;
6033;SDS011;3045;43.226;27.858;2023-04-15T01:39:59;33.47;;;11.60;;
6033;SDS011;3045;43.226;27.858;2023-04-15T01:42:27;43.37;;;12.77;;
6033;SDS011;3045;43.226;27.858;2023-04-15T01:44:56;54.70;;;12.30;;
6033;SDS011;3045;43.226;27.858;2023-04-15T01:47:23;44.77;;;13.47;;
6033;SDS011;3045;43.226;27.858;2023-04-15T01:49:50;41.97;;;12.70;;
6033;SDS011;3045;43.226;27.858;2023-04-15T01:52:16;43.43;;;14.60;;
6033;SDS011;3045;43.226;27.858;2023-04-15T01:54:43;43.20;;;14.17;;
6033;SDS011;3045;43.226;27.858;2023-04-15T01:57:11;42.47;;;13.13;;
6033;SDS011;3045;43.226;27.858;2023-04-15T01:59:38;39.40;;;12.53;;
6033;SDS011;3045;43.226;27.858;2023-04-15T02:02:06;33.53;;;12.03;;
6033;SDS011;3045;43.226;27.858;2023-04-15T02:04:33;40.13;;;9.37;;
6033;SDS011;3045;43.226;27.858;2023-04-15T02:07:00;37.53;;;11.17;;
6033;SDS011;3045;43.226;27.858;2023-04-15T02:09:27;29.53;;;10.43;;
6033;SDS011;3045;43.226;27.858;2023-04-15T02:11:55;36.87;;;10.13;;
6033;SDS011;3045;43.226;27.858;2023-04-15T02:14:22;22.50;;;10.77;;
6033;SDS011;3045;43.226;27.858;2023-04-15T02:16:49;19.50;;;7.37;;
6033;SDS011;3045;43.226;27.858;2023-04-15T02:19:19;12.47;;;6.70;;
6033;SDS011;3045;43.226;27.858;2023-04-15T02:21:46;25.33;;;8.00;;
6033;SDS011;3045;43.226;27.858;2023-04-15T02:24:13;25.77;;;8.00;;
6033;SDS011;3045;43.226;27.858;2023-04-15T02:26:40;57.17;;;12.77;;
6033;SDS011;3045;43.226;27.858;2023-04-15T02:29:07;67.87;;;12.23;;
6033;SDS011;3045;43.226;27.858;2023-04-15T02:31:34;33.93;;;11.13;;
6033;SDS011;3045;43.226;27.858;2023-04-15T02:34:04;51.30;;;10.17;;
6033;SDS011;3045;43.226;27.858;2023-04-15T02:36:32;34.57;;;10.57;;
6033;SDS011;3045;43.226;27.858;2023-04-15T02:38:59;33.13;;;10.30;;
6033;SDS011;3045;43.226;27.858;2023-04-15T02:41:27;57.45;;;10.80;;
6033;SDS011;3045;43.226;27.858;2023-04-15T02:43:54;33.60;;;11.30;;
6033;SDS011;3045;43.226;27.858;2023-04-15T02:46:21;30.30;;;11.07;;
6033;SDS011;3045;43.226;27.858;2023-04-15T02:48:48;38.13;;;10.57;;
6033;SDS011;3045;43.226;27.858;2023-04-15T02:51:17;36.07;;;8.67;;
6033;SDS011;3045;43.226;27.858;2023-04-15T02:53:47;46.60;;;9.77;;
6033;SDS011;3045;43.226;27.858;2023-04-15T02:56:14;45.20;;;10.57;;
6033;SDS011;3045;43.226;27.858;2023-04-15T02:58:43;37.60;;;10.27;;
6033;SDS011;3045;43.226;27.858;2023-04-15T03:01:10;34.20;;;10.13;;
6033;SDS011;3045;43.226;27.858;2023-04-15T03:03:37;39.93;;;10.23;;
6033;SDS011;3045;43.226;27.858;2023-04-15T03:06:04;39.97;;;10.17;;
6033;SDS011;3045;43.226;27.858;2023-04-15T03:08:33;40.43;;;10.70;;
6033;SDS011;3045;43.226;27.858;2023-04-15T03:11:01;23.00;;;9.97;;
6033;SDS011;3045;43.226;27.858;2023-04-15T03:13:29;30.33;;;10.07;;
6033;SDS011;3045;43.226;27.858;2023-04-15T03:15:55;15.57;;;9.23;;
6033;SDS011;3045;43.226;27.858;2023-04-15T03:18:22;23.73;;;8.60;;
6033;SDS011;3045;43.226;27.858;2023-04-15T03:20:50;14.60;;;6.10;;
6033;SDS011;3045;43.226;27.858;2023-04-15T03:23:17;17.10;;;7.10;;
6033;SDS011;3045;43.226;27.858;2023-04-15T03:25:44;7.93;;;6.17;;
6033;SDS011;3045;43.226;27.858;2023-04-15T03:28:12;13.13;;;6.10;;
6033;SDS011;3045;43.226;27.858;2023-04-15T03:30:39;14.27;;;6.40;;
6033;SDS011;3045;43.226;27.858;2023-04-15T03:33:06;10.77;;;5.93;;
6033;SDS011;3045;43.226;27.858;2023-04-15T03:35:33;12.83;;;5.73;;
6033;SDS011;3045;43.226;27.858;2023-04-15T03:38:00;10.87;;;5.87;;
6033;SDS011;3045;43.226;27.858;2023-04-15T03:40:27;8.43;;;4.90;;
6033;SDS011;3045;43.226;27.858;2023-04-15T03:42:54;4.73;;;4.27;;
6033;SDS011;3045;43.226;27.858;2023-04-15T03:45:23;13.33;;;5.07;;
6033;SDS011;3045;43.226;27.858;2023-04-15T03:47:50;11.20;;;5.00;;
6033;SDS011;3045;43.226;27.858;2023-04-15T03:50:17;15.30;;;5.93;;
6033;SDS011;3045;43.226;27.858;2023-04-15T03:52:44;19.07;;;9.00;;
6033;SDS011;3045;43.226;27.858;2023-04-15T03:55:11;17.50;;;7.80;;
6033;SDS011;3045;43.226;27.858;2023-04-15T03:57:38;12.80;;;7.43;;
6033;SDS011;3045;43.226;27.858;2023-04-15T04:00:06;12.87;;;6.77;;
6033;SDS011;3045;43.226;27.858;2023-04-15T04:02:36;10.10;;;6.57;;
6033;SDS011;3045;43.226;27.858;2023-04-15T04:05:04;21.67;;;6.90;;
6033;SDS011;3045;43.226;27.858;2023-04-15T04:07:32;11.23;;;5.17;;
6033;SDS011;3045;43.226;27.858;2023-04-15T04:09:59;8.00;;;5.13;;
6033;SDS011;3045;43.226;27.858;2023-04-15T04:12:27;8.03;;;6.17;;
6033;SDS011;3045;43.226;27.858;2023-04-15T04:14:54;11.00;;;8.13;;
6033;SDS011;3045;43.226;27.858;2023-04-15T04:17:21;18.47;;;10.70;;
6033;SDS011;3045;43.226;27.858;2023-04-15T04:19:50;15.80;;;11.03;;
6033;SDS011;3045;43.226;27.858;2023-04-15T04:22:17;23.57;;;9.87;;
6033;SDS011;3045;43.226;27.858;2023-04-15T04:24:47;15.27;;;8.40;;
6033;SDS011;3045;43.226;27.858;2023-04-15T04:27:14;13.13;;;6.53;;
6033;SDS011;3045;43.226;27.858;2023-04-15T04:29:41;11.20;;;5.87;;
6033;SDS011;3045;43.226;27.858;2023-04-15T04:32:08;10.47;;;6.23;;
6033;SDS011;3045;43.226;27.858;2023-04-15T04:34:36;12.47;;;6.70;;
6033;SDS011;3045;43.226;27.858;2023-04-15T04:37:04;14.60;;;6.27;;
6033;SDS011;3045;43.226;27.858;2023-04-15T04:39:31;12.93;;;6.17;;
6033;SDS011;3045;43.226;27.858;2023-04-15T04:41:58;13.87;;;6.33;;
6033;SDS011;3045;43.226;27.858;2023-04-15T04:44:25;9.60;;;6.07;;
6033;SDS011;3045;43.226;27.858;2023-04-15T04:46:55;7.23;;;6.23;;
6033;SDS011;3045;43.226;27.858;2023-04-15T04:49:23;9.30;;;5.37;;
6033;SDS011;3045;43.226;27.858;2023-04-15T04:51:50;7.97;;;6.53;;
6033;SDS011;3045;43.226;27.858;2023-04-15T04:54:19;15.30;;;5.87;;
6033;SDS011;3045;43.226;27.858;2023-04-15T04:56:46;6.23;;;5.37;;
6033;SDS011;3045;43.226;27.858;2023-04-15T04:59:13;12.00;;;5.87;;
6033;SDS011;3045;43.226;27.858;2023-04-15T05:01:40;12.27;;;6.37;;
6033;SDS011;3045;43.226;27.858;2023-04-15T05:04:07;11.63;;;5.90;;
6033;SDS011;3045;43.226;27.858;2023-04-15T05:06:34;10.40;;;5.47;;
6033;SDS011;3045;43.226;27.858;2023-04-15T05:09:01;10.40;;;5.43;;
6033;SDS011;3045;43.226;27.858;2023-04-15T05:11:30;8.10;;;5.07;;
6033;SDS011;3045;43.226;27.858;2023-04-15T05:13:57;9.63;;;5.00;;
6033;SDS011;3045;43.226;27.858;2023-04-15T05:16:25;10.53;;;5.50;;
6033;SDS011;3045;43.226;27.858;2023-04-15T05:18:52;12.50;;;5.87;;
6033;SDS011;3045;43.226;27.858;2023-04-15T05:21:19;13.83;;;5.60;;
6033;SDS011;3045;43.226;27.858;2023-04-15T05:23:46;5.03;;;4.60;;
6033;SDS011;3045;43.226;27.858;2023-04-15T05:26:13;9.17;;;5.20;;
6033;SDS011;3045;43.226;27.858;2023-04-15T05:28:42;11.50;;;5.57;;
6033;SDS011;3045;43.226;27.858;2023-04-15T05:31:09;8.10;;;5.37;;
6033;SDS011;3045;43.226;27.858;2023-04-15T05:33:36;6.77;;;5.53;;
6033;SDS011;3045;43.226;27.858;2023-04-15T05:36:03;10.90;;;5.90;;
6033;SDS011;3045;43.226;27.858;2023-04-15T05:38:30;9.67;;;5.90;;
6033;SDS011;3045;43.226;27.858;2023-04-15T05:40:57;10.57;;;6.10;;
6033;SDS011;3045;43.226;27.858;2023-04-15T05:43:24;6.10;;;5.53;;
6033;SDS011;3045;43.226;27.858;2023-04-15T05:45:53;8.70;;;6.40;;
6033;SDS011;3045;43.226;27.858;2023-04-15T05:48:20;20.17;;;5.30;;
6033;SDS011;3045;43.226;27.858;2023-04-15T05:50:47;8.90;;;4.47;;
6033;SDS011;3045;43.226;27.858;2023-04-15T05:53:14;10.87;;;5.10;;
6033;SDS011;3045;43.226;27.858;2023-04-15T05:55:41;7.53;;;5.20;;
6033;SDS011;3045;43.226;27.858;2023-04-15T05:58:08;10.50;;;5.37;;
6033;SDS011;3045;43.226;27.858;2023-04-15T06:00:35;10.17;;;5.73;;
6033;SDS011;3045;43.226;27.858;2023-04-15T06:03:04;10.17;;;5.30;;
6033;SDS011;3045;43.226;27.858;2023-04-15T06:05:31;9.87;;;5.80;;
6033;SDS011;3045;43.226;27.858;2023-04-15T06:07:59;15.90;;;6.57;;
6033;SDS011;3045;43.226;27.858;2023-04-15T06:10:26;12.47;;;7.07;;
6033;SDS011;3045;43.226;27.858;2023-04-15T06:12:53;9.10;;;8.27;;
6033;SDS011;3045;43.226;27.858;2023-04-15T06:15:20;13.93;;;9.03;;
6033;SDS011;3045;43.226;27.858;2023-04-15T06:17:47;12.23;;;9.47;;
6033;SDS011;3045;43.226;27.858;2023-04-15T06:20:15;13.53;;;10.17;;
6033;SDS011;3045;43.226;27.858;2023-04-15T06:22:43;15.10;;;11.10;;
6033;SDS011;3045;43.226;27.858;2023-04-15T06:25:10;14.73;;;10.07;;
6033;SDS011;3045;43.226;27.858;2023-04-15T06:27:36;15.73;;;10.53;;
6033;SDS011;3045;43.226;27.858;2023-04-15T06:30:04;15.00;;;11.43;;
6033;SDS011;3045;43.226;27.858;2023-04-15T06:32:32;17.27;;;11.30;;
6033;SDS011;3045;43.226;27.858;2023-04-15T06:34:59;15.63;;;11.30;;
6033;SDS011;3045;43.226;27.858;2023-04-15T06:37:27;15.30;;;12.40;;
6033;SDS011;3045;43.226;27.858;2023-04-15T06:39:54;21.17;;;11.80;;
6033;SDS011;3045;43.226;27.858;2023-04-15T06:42:21;16.80;;;12.30;;
6033;SDS011;3045;43.226;27.858;2023-04-15T06:44:48;20.90;;;12.63;;
6033;SDS011;3045;43.226;27.858;2023-04-15T06:47:15;14.43;;;11.20;;
6033;SDS011;3045;43.226;27.858;2023-04-15T06:49:43;13.70;;;12.33;;
6033;SDS011;3045;43.226;27.858;2023-04-15T06:52:10;22.33;;;11.97;;
6033;SDS011;3045;43.226;27.858;2023-04-15T06:54:39;24.77;;;12.53;;
6033;SDS011;3045;43.226;27.858;2023-04-15T06:57:06;16.97;;;11.60;;
6033;SDS011;3045;43.226;27.858;2023-04-15T06:59:33;19.67;;;11.97;;
6033;SDS011;3045;43.226;27.858;2023-04-15T07:02:00;21.23;;;12.63;;
6033;SDS011;3045;43.226;27.858;2023-04-15T07:04:27;19.37;;;11.93;;
6033;SDS011;3045;43.226;27.858;2023-04-15T07:06:54;18.73;;;12.87;;
6033;SDS011;3045;43.226;27.858;2023-04-15T07:09:22;16.87;;;13.43;;
6033;SDS011;3045;43.226;27.858;2023-04-15T07:11:51;19.13;;;11.40;;
6033;SDS011;3045;43.226;27.858;2023-04-15T07:14:18;8.87;;;8.23;;
6033;SDS011;3045;43.226;27.858;2023-04-15T07:16:45;7.67;;;7.07;;
6033;SDS011;3045;43.226;27.858;2023-04-15T07:19:12;14.17;;;7.57;;
6033;SDS011;3045;43.226;27.858;2023-04-15T07:21:39;10.63;;;7.27;;
6033;SDS011;3045;43.226;27.858;2023-04-15T07:24:06;8.80;;;8.03;;
6033;SDS011;3045;43.226;27.858;2023-04-15T07:26:34;15.03;;;8.63;;
6033;SDS011;3045;43.226;27.858;2023-04-15T07:29:02;9.17;;;8.37;;
6033;SDS011;3045;43.226;27.858;2023-04-15T07:31:29;9.33;;;8.60;;
6033;SDS011;3045;43.226;27.858;2023-04-15T07:33:56;8.43;;;7.73;;
6033;SDS011;3045;43.226;27.858;2023-04-15T07:36:23;13.30;;;8.57;;
6033;SDS011;3045;43.226;27.858;2023-04-15T07:38:50;12.37;;;8.03;;
6033;SDS011;3045;43.226;27.858;2023-04-15T07:41:18;9.83;;;7.90;;
6033;SDS011;3045;43.226;27.858;2023-04-15T07:43:45;8.00;;;7.10;;
6033;SDS011;3045;43.226;27.858;2023-04-15T07:46:19;7.43;;;6.40;;
6033;SDS011;3045;43.226;27.858;2023-04-15T07:48:48;5.07;;;4.53;;
6033;SDS011;3045;43.226;27.858;2023-04-15T07:51:15;4.90;;;4.57;;
6033;SDS011;3045;43.226;27.858;2023-04-15T07:53:43;6.43;;;5.13;;
6033;SDS011;3045;43.226;27.858;2023-04-15T07:56:10;4.67;;;4.27;;
6033;SDS011;3045;43.226;27.858;2023-04-15T07:58:37;4.97;;;4.57;;
6033;SDS011;3045;43.226;27.858;2023-04-15T08:01:04;3.40;;;3.20;;
6033;SDS011;3045;43.226;27.858;2023-04-15T08:03:33;4.13;;;2.83;;
6033;SDS011;3045;43.226;27.858;2023-04-15T08:06:00;3.70;;;3.50;;
6033;SDS011;3045;43.226;27.858;2023-04-15T08:08:29;4.37;;;2.80;;
6033;SDS011;3045;43.226;27.858;2023-04-15T08:10:56;3.70;;;3.40;;
6033;SDS011;3045;43.226;27.858;2023-04-15T08:13:24;3.87;;;3.60;;
6033;SDS011;3045;43.226;27.858;2023-04-15T08:15:53;3.33;;;3.20;;
6033;SDS011;3045;43.226;27.858;2023-04-15T08:18:41;4.83;;;3.73;;
6033;SDS011;3045;43.226;27.858;2023-04-15T08:21:08;3.87;;;3.67;;
6033;SDS011;3045;43.226;27.858;2023-04-15T08:23:36;3.70;;;3.40;;
6033;SDS011;3045;43.226;27.858;2023-04-15T08:26:03;6.30;;;3.53;;
6033;SDS011;3045;43.226;27.858;2023-04-15T08:28:30;3.00;;;2.60;;
6033;SDS011;3045;43.226;27.858;2023-04-15T08:30:57;3.13;;;2.30;;
6033;SDS011;3045;43.226;27.858;2023-04-15T08:33:24;2.60;;;2.40;;
6033;SDS011;3045;43.226;27.858;2023-04-15T08:35:54;3.07;;;2.30;;
6033;SDS011;3045;43.226;27.858;2023-04-15T08:38:21;2.97;;;2.77;;
6033;SDS011;3045;43.226;27.858;2023-04-15T08:40:49;2.20;;;2.10;;
6033;SDS011;3045;43.226;27.858;2023-04-15T08:43:17;3.73;;;2.27;;
6033;SDS011;3045;43.226;27.858;2023-04-15T08:45:49;2.13;;;2.00;;
6033;SDS011;3045;43.226;27.858;2023-04-15T08:48:17;2.10;;;2.00;;
6033;SDS011;3045;43.226;27.858;2023-04-15T08:50:45;4.00;;;2.33;;
6033;SDS011;3045;43.226;27.858;2023-04-15T08:53:14;2.77;;;2.10;;
6033;SDS011;3045;43.226;27.858;2023-04-15T08:55:42;2.50;;;2.30;;
6033;SDS011;3045;43.226;27.858;2023-04-15T08:58:10;5.03;;;2.67;;
6033;SDS011;3045;43.226;27.858;2023-04-15T09:00:38;3.10;;;2.10;;
6033;SDS011;3045;43.226;27.858;2023-04-15T09:03:06;4.47;;;2.33;;
6033;SDS011;3045;43.226;27.858;2023-04-15T09:05:34;1.97;;;1.77;;
6033;SDS011;3045;43.226;27.858;2023-04-15T09:08:04;2.20;;;2.00;;
6033;SDS011;3045;43.226;27.858;2023-04-15T09:10:32;2.63;;;1.80;;
6033;SDS011;3045;43.226;27.858;2023-04-15T09:13:00;6.57;;;2.50;;
6033;SDS011;3045;43.226;27.858;2023-04-15T09:15:27;7.20;;;2.57;;
6033;SDS011;3045;43.226;27.858;2023-04-15T09:17:54;2.70;;;1.67;;
6033;SDS011;3045;43.226;27.858;2023-04-15T09:20:22;5.17;;;1.80;;
6033;SDS011;3045;43.226;27.858;2023-04-15T09:22:49;2.03;;;1.90;;
6033;SDS011;3045;43.226;27.858;2023-04-15T09:25:26;2.03;;;1.90;;
6033;SDS011;3045;43.226;27.858;2023-04-15T09:27:55;1.97;;;1.77;;
6033;SDS011;3045;43.226;27.858;2023-04-15T09:30:23;2.13;;;1.93;;
6033;SDS011;3045;43.226;27.858;2023-04-15T09:32:50;3.83;;;1.80;;
6033;SDS011;3045;43.226;27.858;2023-04-15T09:35:19;1.93;;;1.83;;
6033;SDS011;3045;43.226;27.858;2023-04-15T09:37:47;4.57;;;2.10;;
6033;SDS011;3045;43.226;27.858;2023-04-15T09:40:14;7.97;;;2.40;;
6033;SDS011;3045;43.226;27.858;2023-04-15T09:42:58;2.77;;;1.63;;
6033;SDS011;3045;43.226;27.858;2023-04-15T09:45:26;3.60;;;1.60;;
6033;SDS011;3045;43.226;27.858;2023-04-15T09:47:53;1.57;;;1.47;;
6033;SDS011;3045;43.226;27.858;2023-04-15T09:50:20;2.60;;;1.80;;
6033;SDS011;3045;43.226;27.858;2023-04-15T09:52:47;1.70;;;1.60;;
6033;SDS011;3045;43.226;27.858;2023-04-15T09:55:16;1.77;;;1.40;;
6033;SDS011;3045;43.226;27.858;2023-04-15T09:57:44;1.50;;;1.40;;
6033;SDS011;3045;43.226;27.858;2023-04-15T10:00:14;2.20;;;1.80;;
6033;SDS011;3045;43.226;27.858;2023-04-15T10:02:41;3.50;;;2.10;;
6033;SDS011;3045;43.226;27.858;2023-04-15T10:05:09;3.10;;;1.70;;
6033;SDS011;3045;43.226;27.858;2023-04-15T10:07:39;2.03;;;1.80;;
6033;SDS011;3045;43.226;27.858;2023-04-15T10:10:07;2.00;;;1.90;;
6033;SDS011;3045;43.226;27.858;2023-04-15T10:12:35;2.43;;;2.17;;
6033;SDS011;3045;43.226;27.858;2023-04-15T10:15:03;5.33;;;2.00;;
6033;SDS011;3045;43.226;27.858;2023-04-15T10:17:33;4.97;;;2.23;;
6033;SDS011;3045;43.226;27.858;2023-04-15T10:20:02;2.93;;;1.90;;
6033;SDS011;3045;43.226;27.858;2023-04-15T10:22:31;2.33;;;1.93;;
6033;SDS011;3045;43.226;27.858;2023-04-15T10:24:58;1.53;;;1.43;;
6033;SDS011;3045;43.226;27.858;2023-04-15T10:27:26;2.80;;;1.80;;
6033;SDS011;3045;43.226;27.858;2023-04-15T10:29:53;3.10;;;1.60;;
6033;SDS011;3045;43.226;27.858;2023-04-15T10:32:23;4.45;;;2.00;;
6033;SDS011;3045;43.226;27.858;2023-04-15T10:34:52;2.30;;;1.70;;
6033;SDS011;3045;43.226;27.858;2023-04-15T10:37:19;1.42;;;1.42;;
6033;SDS011;3045;43.226;27.858;2023-04-15T10:39:47;3.47;;;1.80;;
6033;SDS011;3045;43.226;27.858;2023-04-15T10:42:17;2.03;;;1.52;;
6033;SDS011;3045;43.226;27.858;2023-04-15T10:44:48;1.90;;;1.70;;
6033;SDS011;3045;43.226;27.858;2023-04-15T10:47:17;2.10;;;2.00;;
6033;SDS011;3045;43.226;27.858;2023-04-15T10:49:46;1.80;;;1.70;;
6033;SDS011;3045;43.226;27.858;2023-04-15T10:52:16;3.93;;;1.50;;
6033;SDS011;3045;43.226;27.858;2023-04-15T10:54:47;1.48;;;1.38;;
6033;SDS011;3045;43.226;27.858;2023-04-15T10:57:15;1.63;;;1.40;;
6033;SDS011;3045;43.226;27.858;2023-04-15T11:00:00;4.60;;;1.50;;
6033;SDS011;3045;43.226;27.858;2023-04-15T11:02:41;1.45;;;1.40;;
6033;SDS011;3045;43.226;27.858;2023-04-15T11:05:12;2.67;;;1.67;;
6033;SDS011;3045;43.226;27.858;2023-04-15T11:07:46;1.70;;;1.60;;
6033;SDS011;3045;43.226;27.858;2023-04-15T11:13:16;1.87;;;1.77;;
6033;SDS011;3045;43.226;27.858;2023-04-15T11:15:46;3.67;;;1.70;;
6033;SDS011;3045;43.226;27.858;2023-04-15T11:18:15;1.60;;;1.50;;
6033;SDS011;3045;43.226;27.858;2023-04-15T11:20:43;2.27;;;1.50;;
6033;SDS011;3045;43.226;27.858;2023-04-15T11:23:14;1.98;;;1.88;;
6033;SDS011;3045;43.226;27.858;2023-04-15T11:25:42;2.67;;;1.43;;
6033;SDS011;3045;43.226;27.858;2023-04-15T11:28:10;3.90;;;1.93;;
6033;SDS011;3045;43.226;27.858;2023-04-15T11:30:37;2.17;;;1.60;;
6033;SDS011;3045;43.226;27.858;2023-04-15T11:33:05;2.47;;;1.63;;
6033;SDS011;3045;43.226;27.858;2023-04-15T11:35:33;1.48;;;1.38;;
6033;SDS011;3045;43.226;27.858;2023-04-15T11:38:01;1.83;;;1.67;;
6033;SDS011;3045;43.226;27.858;2023-04-15T11:40:31;1.80;;;1.70;;
6033;SDS011;3045;43.226;27.858;2023-04-15T11:43:03;2.00;;;1.83;;
6033;SDS011;3045;43.226;27.858;2023-04-15T11:45:31;3.63;;;2.00;;
6033;SDS011;3045;43.226;27.858;2023-04-15T11:48:05;1.65;;;1.55;;
6033;SDS011;3045;43.226;27.858;2023-04-15T11:50:33;2.20;;;2.00;;
6033;SDS011;3045;43.226;27.858;2023-04-15T11:53:01;1.40;;;1.30;;
6033;SDS011;3045;43.226;27.858;2023-04-15T11:55:32;1.87;;;1.70;;
6033;SDS011;3045;43.226;27.858;2023-04-15T11:58:08;5.20;;;1.75;;
6033;SDS011;3045;43.226;27.858;2023-04-15T12:00:36;2.00;;;1.50;;
6033;SDS011;3045;43.226;27.858;2023-04-15T12:03:13;2.20;;;1.33;;
6033;SDS011;3045;43.226;27.858;2023-04-15T12:06:02;4.03;;;1.60;;
6033;SDS011;3045;43.226;27.858;2023-04-15T12:08:49;2.55;;;1.73;;
6033;SDS011;3045;43.226;27.858;2023-04-15T12:11:19;3.92;;;1.92;;
6033;SDS011;3045;43.226;27.858;2023-04-15T12:13:47;1.50;;;1.48;;
6033;SDS011;3045;43.226;27.858;2023-04-15T12:16:16;5.18;;;1.70;;
6033;SDS011;3045;43.226;27.858;2023-04-15T12:18:44;2.65;;;1.45;;
6033;SDS011;3045;43.226;27.858;2023-04-15T12:21:12;2.83;;;1.38;;
6033;SDS011;3045;43.226;27.858;2023-04-15T12:23:46;1.63;;;1.52;;
6033;SDS011;3045;43.226;27.858;2023-04-15T12:26:14;2.13;;;1.92;;
6033;SDS011;3045;43.226;27.858;2023-04-15T12:28:42;2.10;;;1.75;;
6033;SDS011;3045;43.226;27.858;2023-04-15T12:31:10;2.22;;;2.13;;
6033;SDS011;3045;43.226;27.858;2023-04-15T12:33:38;5.13;;;2.10;;
6033;SDS011;3045;43.226;27.858;2023-04-15T12:36:05;1.60;;;1.50;;
6033;SDS011;3045;43.226;27.858;2023-04-15T12:38:32;3.00;;;1.50;;
6033;SDS011;3045;43.226;27.858;2023-04-15T12:40:59;1.37;;;1.37;;
6033;SDS011;3045;43.226;27.858;2023-04-15T12:43:26;2.20;;;1.60;;
6033;SDS011;3045;43.226;27.858;2023-04-15T12:45:54;1.60;;;1.50;;
6033;SDS011;3045;43.226;27.858;2023-04-15T12:48:22;1.83;;;1.37;;
6033;SDS011;3045;43.226;27.858;2023-04-15T12:50:48;4.57;;;1.60;;
6033;SDS011;3045;43.226;27.858;2023-04-15T12:53:15;1.80;;;1.60;;
6033;SDS011;3045;43.226;27.858;2023-04-15T12:55:43;7.10;;;1.60;;
6033;SDS011;3045;43.226;27.858;2023-04-15T12:58:10;2.60;;;1.63;;
6033;SDS011;3045;43.226;27.858;2023-04-15T13:00:37;4.67;;;1.40;;
6033;SDS011;3045;43.226;27.858;2023-04-15T13:03:05;2.53;;;1.57;;
6033;SDS011;3045;43.226;27.858;2023-04-15T13:05:32;1.47;;;1.37;;
6033;SDS011;3045;43.226;27.858;2023-04-15T13:08:01;1.57;;;1.47;;
6033;SDS011;3045;43.226;27.858;2023-04-15T13:10:28;2.47;;;1.60;;
6033;SDS011;3045;43.226;27.858;2023-04-15T13:12:55;1.90;;;1.20;;
6033;SDS011;3045;43.226;27.858;2023-04-15T13:15:23;1.93;;;1.63;;
6033;SDS011;3045;43.226;27.858;2023-04-15T13:17:50;1.47;;;1.20;;
6033;SDS011;3045;43.226;27.858;2023-04-15T13:20:19;2.43;;;1.27;;
6033;SDS011;3045;43.226;27.858;2023-04-15T13:22:46;2.23;;;1.53;;
6033;SDS011;3045;43.226;27.858;2023-04-15T13:25:13;2.63;;;1.40;;
6033;SDS011;3045;43.226;27.858;2023-04-15T13:27:40;1.60;;;1.50;;
6033;SDS011;3045;43.226;27.858;2023-04-15T13:30:08;3.20;;;1.40;;
6033;SDS011;3045;43.226;27.858;2023-04-15T13:32:35;2.63;;;1.60;;
6033;SDS011;3045;43.226;27.858;2023-04-15T13:35:02;1.60;;;1.50;;
6033;SDS011;3045;43.226;27.858;2023-04-15T13:37:31;3.10;;;1.50;;
6033;SDS011;3045;43.226;27.858;2023-04-15T13:39:58;2.30;;;1.23;;
6033;SDS011;3045;43.226;27.858;2023-04-15T13:42:31;1.87;;;1.60;;
6033;SDS011;3045;43.226;27.858;2023-04-15T13:44:58;2.17;;;1.50;;
6033;SDS011;3045;43.226;27.858;2023-04-15T13:47:25;1.30;;;1.17;;
6033;SDS011;3045;43.226;27.858;2023-04-15T13:49:52;3.30;;;1.30;;
6033;SDS011;3045;43.226;27.858;2023-04-15T13:52:20;2.83;;;1.60;;
6033;SDS011;3045;43.226;27.858;2023-04-15T13:54:49;1.57;;;1.47;;
6033;SDS011;3045;43.226;27.858;2023-04-15T13:57:16;1.33;;;1.23;;
6033;SDS011;3045;43.226;27.858;2023-04-15T13:59:43;2.43;;;1.50;;
6033;SDS011;3045;43.226;27.858;2023-04-15T14:02:10;2.23;;;1.30;;
6033;SDS011;3045;43.226;27.858;2023-04-15T14:04:37;2.73;;;1.70;;
6033;SDS011;3045;43.226;27.858;2023-04-15T14:07:04;2.00;;;1.53;;
6033;SDS011;3045;43.226;27.858;2023-04-15T14:09:31;1.77;;;1.67;;
6033;SDS011;3045;43.226;27.858;2023-04-15T14:11:59;1.60;;;1.20;;
6033;SDS011;3045;43.226;27.858;2023-04-15T14:14:26;1.80;;;1.37;;
6033;SDS011;3045;43.226;27.858;2023-04-15T14:16:54;2.60;;;1.70;;
6033;SDS011;3045;43.226;27.858;2023-04-15T14:19:21;1.50;;;1.40;;
6033;SDS011;3045;43.226;27.858;2023-04-15T14:21:49;5.67;;;1.83;;
6033;SDS011;3045;43.226;27.858;2023-04-15T14:24:16;1.63;;;1.53;;
6033;SDS011;3045;43.226;27.858;2023-04-15T14:26:43;1.30;;;1.20;;
6033;SDS011;3045;43.226;27.858;2023-04-15T14:29:11;3.70;;;1.70;;
6033;SDS011;3045;43.226;27.858;2023-04-15T14:31:38;1.60;;;1.50;;
6033;SDS011;3045;43.226;27.858;2023-04-15T14:34:06;3.83;;;2.13;;
6033;SDS011;3045;43.226;27.858;2023-04-15T14:36:33;4.33;;;1.93;;
6033;SDS011;3045;43.226;27.858;2023-04-15T14:39:00;2.40;;;2.03;;
6033;SDS011;3045;43.226;27.858;2023-04-15T14:41:28;4.13;;;2.10;;
6033;SDS011;3045;43.226;27.858;2023-04-15T14:43:55;4.47;;;1.63;;
6033;SDS011;3045;43.226;27.858;2023-04-15T14:46:23;3.23;;;2.00;;
6033;SDS011;3045;43.226;27.858;2023-04-15T14:48:50;4.60;;;1.80;;
6033;SDS011;3045;43.226;27.858;2023-04-15T14:51:18;2.30;;;2.10;;
6033;SDS011;3045;43.226;27.858;2023-04-15T14:53:45;3.80;;;2.10;;
6033;SDS011;3045;43.226;27.858;2023-04-15T14:56:12;5.23;;;2.10;;
6033;SDS011;3045;43.226;27.858;2023-04-15T14:58:39;2.93;;;2.40;;
6033;SDS011;3045;43.226;27.858;2023-04-15T15:01:06;3.17;;;2.97;;